Severomorsk, Russia
Current Conditions -  °F | °C
As of 5:00 AM on Monday 24 Nov 2014 (Local Time) from ULMM Reporting Station
Broken Clouds Broken Clouds  
Wind Chill: 19°   Ceiling: 1300
Heat Index: 25°   Visibility: 6mi
Dew Point: 21°   Wind: 4mph
Humidity: 86%   Direction: NA
Pressure: 30.12"   Gusts: NA
Location:  69.07°N, 33.42°E
Report Text: ULMM 240200Z VRB02MPS 9999 BKN013 M04/M06 Q1020 NOSIG RMK QFE758 31690140
Loading
Personal Weather Stations






























Interactive Weather Map New forecast layout! Learn more

10-Day Weather Forecast

Advertisements
Track Severe Weather on mobile